Time;durP1;ratioP1;P1;durP2;ratioP2;P2;SDS_P1;SDS_P2;PMS_P1;PMS_P2;Temp;Humidity;BMP_temperature;BMP_pressure;BME280_temperature;BME280_humidity;BME280_pressure;Samples;Min_cycle;Max_cycle;Signal;HPM_P1;HPM_P2
2021/05/14 00:01:01;;;;;;;0.43;0.30;;;12.40;63.30;;;;;;4992776;28;20046;-67
2021/05/14 00:03:28;;;;;;;0.40;0.32;;;12.40;63.40;;;;;;4992233;28;20054;-67
2021/05/14 00:05:54;;;;;;;0.45;0.40;;;12.30;63.60;;;;;;4992368;28;20526;-67
2021/05/14 00:08:20;;;;;;;0.52;0.40;;;12.30;63.70;;;;;;4995334;28;20387;-67
2021/05/14 00:10:47;;;;;;;0.68;0.40;;;12.30;63.80;;;;;;4996729;28;20550;-67
2021/05/14 00:13:13;;;;;;;0.30;0.30;;;12.30;63.90;;;;;;4996606;28;20069;-67
2021/05/14 00:15:40;;;;;;;0.32;0.32;;;12.30;64.00;;;;;;4996347;28;20482;-68
2021/05/14 00:18:06;;;;;;;0.40;0.40;;;12.30;64.10;;;;;;4996565;28;20549;-68
2021/05/14 00:20:32;;;;;;;0.93;0.50;;;12.30;64.20;;;;;;4996034;28;20042;-67
2021/05/14 00:22:59;;;;;;;0.70;0.45;;;12.30;64.40;;;;;;4996014;28;20173;-67
2021/05/14 00:25:25;;;;;;;0.47;0.47;;;12.30;64.60;;;;;;4996321;28;20046;-67
2021/05/14 00:27:52;;;;;;;0.20;0.20;;;12.30;64.80;;;;;;4985169;28;20085;-66
2021/05/14 00:30:18;;;;;;;0.22;0.22;;;12.20;64.70;;;;;;4996259;28;20112;-66
2021/05/14 00:32:45;;;;;;;0.20;0.20;;;12.20;64.80;;;;;;4996210;28;20054;-67
2021/05/14 00:35:12;;;;;;;0.40;0.40;;;12.20;65.00;;;;;;4996194;28;20050;-66
2021/05/14 00:37:38;;;;;;;0.50;0.40;;;12.20;65.20;;;;;;4995555;28;20658;-67
2021/05/14 00:40:07;;;;;;;0.45;0.45;;;12.20;65.40;;;;;;4996006;28;20132;-66
2021/05/14 00:42:34;;;;;;;0.50;0.50;;;12.20;65.60;;;;;;4995902;28;20057;-66
2021/05/14 00:45:01;;;;;;;0.45;0.43;;;12.10;65.70;;;;;;4995761;28;20048;-67
2021/05/14 00:47:28;;;;;;;0.32;0.32;;;12.10;65.80;;;;;;4995874;28;20058;-67
2021/05/14 00:49:54;;;;;;;0.50;0.50;;;12.20;65.90;;;;;;4995517;28;20089;-67
2021/05/14 00:52:20;;;;;;;0.57;0.45;;;12.10;66.00;;;;;;4995219;28;20498;-67
2021/05/14 00:54:49;;;;;;;0.45;0.45;;;12.20;66.30;;;;;;4995602;28;20129;-67
2021/05/14 00:57:16;;;;;;;0.57;0.45;;;12.20;66.40;;;;;;4995782;28;20125;-68
2021/05/14 00:59:44;;;;;;;0.30;0.30;;;12.20;66.50;;;;;;4995580;28;20057;-68
2021/05/14 01:02:10;;;;;;;0.63;0.40;;;12.20;66.70;;;;;;4995682;28;20510;-68
2021/05/14 01:04:38;;;;;;;0.40;0.40;;;12.20;66.80;;;;;;4995240;28;20054;-68
2021/05/14 01:07:05;;;;;;;0.60;0.60;;;12.10;67.00;;;;;;4995289;28;20406;-68
2021/05/14 01:09:33;;;;;;;0.52;0.40;;;12.10;67.00;;;;;;4995243;28;20058;-68
2021/05/14 01:12:00;;;;;;;0.40;0.40;;;12.10;67.10;;;;;;4995731;28;20096;-67
2021/05/14 01:14:27;;;;;;;0.45;0.45;;;12.10;67.10;;;;;;4995392;28;20177;-68
2021/05/14 01:16:53;;;;;;;0.32;0.32;;;12.10;67.20;;;;;;4993465;28;20047;-68
2021/05/14 01:19:20;;;;;;;0.57;0.50;;;12.10;67.40;;;;;;4994905;28;20181;-68
2021/05/14 01:21:47;;;;;;;0.50;0.50;;;12.00;67.50;;;;;;4994675;28;20130;-68
2021/05/14 01:24:14;;;;;;;0.30;0.30;;;12.00;67.40;;;;;;4995253;28;20121;-68
2021/05/14 01:26:40;;;;;;;0.77;0.50;;;12.10;67.50;;;;;;4994948;28;20086;-68
2021/05/14 01:29:09;;;;;;;0.32;0.32;;;12.10;67.80;;;;;;4995103;28;20551;-66
2021/05/14 01:31:35;;;;;;;0.60;0.50;;;12.00;67.80;;;;;;4994973;28;20062;-67
2021/05/14 01:34:04;;;;;;;0.20;0.20;;;12.00;67.90;;;;;;4995090;28;20130;-68
2021/05/14 01:36:30;;;;;;;0.32;0.32;;;12.00;68.10;;;;;;4994651;28;20090;-67
2021/05/14 01:39:05;;;;;;;0.32;0.32;;;12.00;68.40;;;;;;4994571;28;20046;-68
2021/05/14 01:41:32;;;;;;;0.50;0.50;;;12.00;68.50;;;;;;4982597;28;20169;-67
2021/05/14 01:43:58;;;;;;;0.50;0.50;;;12.00;68.80;;;;;;4995106;28;20062;-68
2021/05/14 01:46:24;;;;;;;0.40;0.40;;;11.90;69.10;;;;;;4994988;28;20100;-68
2021/05/14 01:48:51;;;;;;;0.30;0.30;;;12.00;69.50;;;;;;4994647;28;20053;-68
2021/05/14 01:51:19;;;;;;;0.50;0.50;;;12.00;69.70;;;;;;4994746;28;20053;-68
2021/05/14 01:53:46;;;;;;;0.32;0.32;;;12.00;70.00;;;;;;4994587;28;20082;-67
2021/05/14 01:56:12;;;;;;;0.40;0.40;;;12.00;70.00;;;;;;4994573;28;20062;-68
2021/05/14 01:58:38;;;;;;;0.32;0.32;;;12.00;70.20;;;;;;4994715;28;20441;-68
2021/05/14 02:01:05;;;;;;;0.40;0.40;;;12.00;70.30;;;;;;4994623;28;20042;-67
2021/05/14 02:03:31;;;;;;;0.40;0.40;;;12.00;70.40;;;;;;4994595;28;20038;-68
2021/05/14 02:05:58;;;;;;;0.40;0.40;;;12.00;70.50;;;;;;4994027;28;20624;-68
2021/05/14 02:08:24;;;;;;;0.45;0.45;;;12.00;70.50;;;;;;4994460;28;20054;-68
2021/05/14 02:10:51;;;;;;;0.40;0.40;;;12.00;70.90;;;;;;4994614;28;20165;-68
2021/05/14 02:13:17;;;;;;;0.40;0.40;;;11.90;70.70;;;;;;4994035;28;20049;-67
2021/05/14 02:15:43;;;;;;;0.30;0.30;;;11.90;70.70;;;;;;4993969;28;20054;-67
2021/05/14 02:18:09;;;;;;;0.50;0.40;;;11.90;70.90;;;;;;4994066;28;20180;-68
2021/05/14 02:20:36;;;;;;;0.38;0.38;;;11.90;71.00;;;;;;4993628;28;20533;-68
2021/05/14 02:23:02;;;;;;;0.30;0.30;;;11.90;71.10;;;;;;4993946;28;20053;-68
2021/05/14 02:25:29;;;;;;;0.65;0.30;;;11.90;71.10;;;;;;4993843;28;20125;-68
2021/05/14 02:27:55;;;;;;;0.30;0.30;;;11.90;71.40;;;;;;4994032;28;20050;-68
2021/05/14 02:30:22;;;;;;;0.40;0.40;;;11.90;71.40;;;;;;4992481;28;20474;-68
2021/05/14 02:32:49;;;;;;;0.35;0.35;;;11.90;71.80;;;;;;4993256;28;20140;-67
2021/05/14 02:35:15;;;;;;;0.40;0.40;;;11.90;71.80;;;;;;4989124;28;20073;-68
2021/05/14 02:37:42;;;;;;;0.30;0.30;;;11.90;72.00;;;;;;4984131;28;20126;-67
2021/05/14 02:40:10;;;;;;;0.30;0.30;;;11.90;72.00;;;;;;4991906;28;20141;-67
2021/05/14 02:42:36;;;;;;;0.30;0.30;;;11.90;72.10;;;;;;5005488;28;20502;-68
2021/05/14 02:45:05;;;;;;;0.40;0.40;;;11.90;72.00;;;;;;4993200;28;20133;-68
2021/05/14 02:47:31;;;;;;;0.40;0.40;;;11.90;72.10;;;;;;4992841;28;20046;-68
2021/05/14 02:49:58;;;;;;;0.30;0.30;;;11.90;72.30;;;;;;4992646;28;20487;-67
2021/05/14 02:52:24;;;;;;;0.30;0.30;;;11.90;72.20;;;;;;4992538;28;20112;-68
2021/05/14 02:54:50;;;;;;;0.35;0.30;;;11.90;72.20;;;;;;4992729;28;20082;-68
2021/05/14 02:57:18;;;;;;;0.65;0.40;;;11.90;72.30;;;;;;4992315;28;20046;-68
2021/05/14 02:59:44;;;;;;;0.40;0.40;;;11.90;72.50;;;;;;4992479;28;20104;-68
2021/05/14 03:02:10;;;;;;;0.20;0.20;;;11.90;72.60;;;;;;4992654;28;20060;-68
2021/05/14 03:04:37;;;;;;;0.55;0.50;;;11.90;72.70;;;;;;4992185;28;20093;-67
2021/05/14 03:07:03;;;;;;;0.38;0.38;;;11.90;72.90;;;;;;4992618;28;20443;-68
2021/05/14 03:09:30;;;;;;;0.40;0.40;;;11.90;72.90;;;;;;4992465;28;20057;-68
2021/05/14 03:11:56;;;;;;;0.45;0.32;;;11.90;73.20;;;;;;4992360;28;20106;-68
2021/05/14 03:14:22;;;;;;;0.45;0.40;;;11.90;73.20;;;;;;4992407;28;20180;-67
2021/05/14 03:16:48;;;;;;;0.40;0.40;;;11.90;73.50;;;;;;4991796;28;20053;-67
2021/05/14 03:19:15;;;;;;;0.25;0.25;;;11.90;73.50;;;;;;4992752;28;20050;-67
2021/05/14 03:21:42;;;;;;;0.20;0.20;;;11.90;73.50;;;;;;4991935;28;20053;-68
2021/05/14 03:24:08;;;;;;;0.35;0.35;;;11.90;73.80;;;;;;4992341;28;20046;-67
2021/05/14 03:26:35;;;;;;;0.28;0.28;;;11.90;73.70;;;;;;4992184;28;20129;-68
2021/05/14 03:29:01;;;;;;;0.63;0.32;;;11.90;73.70;;;;;;4991970;28;20085;-68
2021/05/14 03:31:28;;;;;;;0.20;0.20;;;11.90;73.80;;;;;;4991974;28;20129;-67
2021/05/14 03:33:54;;;;;;;0.40;0.40;;;11.90;73.80;;;;;;4991926;28;20080;-68
2021/05/14 03:36:21;;;;;;;0.30;0.30;;;11.90;73.80;;;;;;4992046;28;20121;-67
2021/05/14 03:38:51;;;;;;;0.30;0.30;;;11.90;74.10;;;;;;4991708;28;20046;-67
2021/05/14 03:41:32;;;;;;;0.30;0.30;;;11.90;74.20;;;;;;4992104;28;20423;-67
2021/05/14 03:43:59;;;;;;;0.35;0.30;;;11.90;74.20;;;;;;4991838;28;20133;-69
2021/05/14 03:46:30;;;;;;;0.30;0.30;;;11.90;74.10;;;;;;4991758;28;20042;-67
2021/05/14 03:48:56;;;;;;;;;;;11.90;74.10;;;;;;4991994;28;20128;-67
2021/05/14 03:51:23;;;;;;;0.20;0.20;;;11.90;74.20;;;;;;4992115;28;19944;-67
2021/05/14 03:53:49;;;;;;;0.20;0.20;;;11.90;74.10;;;;;;4991485;28;20181;-67
2021/05/14 03:56:15;;;;;;;0.20;0.20;;;11.90;74.10;;;;;;4987211;28;20050;-68
2021/05/14 03:58:42;;;;;;;0.40;0.20;;;11.90;74.30;;;;;;4982346;28;20153;-68
2021/05/14 04:01:08;;;;;;;0.13;0.13;;;11.90;74.20;;;;;;4991409;28;20434;-68
2021/05/14 04:03:34;;;;;;;0.20;0.20;;;11.90;74.20;;;;;;4991759;28;20505;-68
2021/05/14 04:06:01;;;;;;;0.20;0.20;;;12.00;74.20;;;;;;4991033;28;20050;-68
2021/05/14 04:08:27;;;;;;;0.20;0.20;;;11.90;74.20;;;;;;4991813;28;20046;-67
2021/05/14 04:16:23;;;;;;;0.28;0.22;;;12.00;74.30;;;;;;4991245;28;20200;-68
2021/05/14 04:18:49;;;;;;;0.20;0.20;;;12.00;74.40;;;;;;4991354;28;20184;-68
2021/05/14 04:21:16;;;;;;;0.30;0.30;;;11.90;74.60;;;;;;4991963;28;20051;-67
2021/05/14 04:23:42;;;;;;;0.25;0.25;;;12.00;74.80;;;;;;4991401;28;20188;-68
2021/05/14 04:26:08;;;;;;;0.30;0.30;;;12.00;74.90;;;;;;4991574;28;20146;-67
2021/05/14 04:28:34;;;;;;;0.20;0.20;;;12.00;75.10;;;;;;4991433;28;20124;-68
2021/05/14 04:31:01;;;;;;;0.10;0.10;;;12.00;75.20;;;;;;4991271;28;20054;-67
2021/05/14 04:33:27;;;;;;;0.35;0.35;;;11.90;75.20;;;;;;4991406;28;20050;-68
2021/05/14 04:35:54;;;;;;;0.30;0.30;;;11.90;75.30;;;;;;4991248;28;20092;-67
2021/05/14 04:38:21;;;;;;;0.20;0.20;;;11.90;75.70;;;;;;4991459;28;20121;-67
2021/05/14 04:40:47;;;;;;;0.20;0.20;;;11.90;75.60;;;;;;4991392;28;20077;-67
2021/05/14 04:43:13;;;;;;;0.20;0.20;;;11.90;76.00;;;;;;4991147;28;20054;-67
2021/05/14 04:45:40;;;;;;;0.28;0.28;;;11.90;76.20;;;;;;4991081;28;20085;-67
2021/05/14 04:48:10;;;;;;;0.20;0.20;;;11.80;76.30;;;;;;4991312;28;20090;-67
2021/05/14 04:50:38;;;;;;;0.25;0.25;;;11.80;76.50;;;;;;4991174;28;20061;-67
2021/05/14 04:53:07;;;;;;;0.30;0.30;;;11.80;76.70;;;;;;4990834;28;20085;-67
2021/05/14 04:55:34;;;;;;;0.17;0.17;;;11.80;76.90;;;;;;4994890;28;20054;-68
2021/05/14 04:58:00;;;;;;;0.20;0.10;;;11.80;77.10;;;;;;4994682;28;20043;-68
2021/05/14 05:00:27;;;;;;;0.30;0.30;;;11.80;77.20;;;;;;4994762;28;20510;-67
2021/05/14 05:02:54;;;;;;;0.20;0.20;;;11.80;77.30;;;;;;4994736;28;20046;-68
2021/05/14 05:05:21;;;;;;;0.10;0.10;;;11.80;77.30;;;;;;4994962;28;20143;-68
2021/05/14 05:07:47;;;;;;;0.10;0.10;;;11.80;78.40;;;;;;4994269;28;20403;-67
2021/05/14 05:10:15;;;;;;;0.20;0.20;;;11.70;77.50;;;;;;4994891;28;20051;-68
2021/05/14 05:12:41;;;;;;;0.20;0.20;;;11.80;77.80;;;;;;4994760;28;20137;-68
2021/05/14 05:15:09;;;;;;;0.10;0.10;;;11.80;78.00;;;;;;4994381;28;20129;-68
2021/05/14 05:17:35;;;;;;;0.10;0.10;;;11.80;78.00;;;;;;4994813;28;20078;-68
2021/05/14 05:20:02;;;;;;;0.20;0.20;;;11.80;78.00;;;;;;4994462;28;20069;-67
2021/05/14 05:22:28;;;;;;;0.15;0.15;;;11.80;78.00;;;;;;4994182;28;20050;-68
2021/05/14 05:24:54;;;;;;;0.20;0.20;;;11.80;78.10;;;;;;4993951;28;20533;-67
2021/05/14 05:27:21;;;;;;;0.22;0.22;;;11.80;78.40;;;;;;4994353;28;20046;-67
2021/05/14 05:29:47;;;;;;;0.10;0.10;;;11.80;78.50;;;;;;4993802;28;20058;-67
2021/05/14 05:32:13;;;;;;;0.55;0.40;;;11.80;78.50;;;;;;4994374;28;20554;-67
2021/05/14 05:34:39;;;;;;;0.30;0.30;;;11.80;78.60;;;;;;4994309;28;20457;-67
2021/05/14 05:37:06;;;;;;;0.20;0.20;;;11.90;78.70;;;;;;4993602;28;20050;-67
2021/05/14 05:39:32;;;;;;;0.15;0.15;;;11.90;79.30;;;;;;4994287;28;20121;-67
2021/05/14 05:41:59;;;;;;;0.20;0.20;;;11.80;79.20;;;;;;4994036;28;20069;-67
2021/05/14 05:44:25;;;;;;;0.30;0.30;;;11.80;79.40;;;;;;4989617;28;20043;-67
2021/05/14 05:46:52;;;;;;;0.28;0.28;;;11.80;79.30;;;;;;4985036;28;20421;-67
2021/05/14 05:49:21;;;;;;;0.10;0.10;;;11.80;79.50;;;;;;4993418;28;20053;-67
2021/05/14 05:51:48;;;;;;;0.20;0.20;;;11.80;79.40;;;;;;4993609;28;20129;-67
2021/05/14 05:54:14;;;;;;;0.20;0.20;;;11.80;79.50;;;;;;4993779;28;20133;-68
2021/05/14 05:56:45;;;;;;;0.30;0.30;;;11.80;79.60;;;;;;4993797;28;20506;-67
2021/05/14 05:59:16;;;;;;;0.17;0.17;;;11.90;79.60;;;;;;4994628;28;20058;-67
2021/05/14 06:01:42;;;;;;;;;;;11.90;79.60;;;;;;4994926;28;20130;-67
2021/05/14 06:04:09;;;;;;;0.10;0.10;;;11.90;79.70;;;;;;4994236;28;20008;-68
2021/05/14 06:06:35;;;;;;;0.32;0.32;;;11.90;79.60;;;;;;4994537;28;20045;-67
2021/05/14 06:09:02;;;;;;;0.30;0.30;;;11.90;79.50;;;;;;4994382;28;20085;-68
2021/05/14 06:11:29;;;;;;;0.13;0.13;;;11.90;79.50;;;;;;4994194;28;20554;-67
2021/05/14 06:13:55;;;;;;;0.38;0.38;;;12.00;79.80;;;;;;4994453;28;20141;-67
2021/05/14 06:16:21;;;;;;;0.20;0.20;;;12.00;79.80;;;;;;4993954;28;20096;-67
2021/05/14 06:18:54;;;;;;;0.20;0.20;;;12.00;79.80;;;;;;4993251;28;20046;-67
2021/05/14 06:21:20;;;;;;;0.32;0.28;;;12.00;79.90;;;;;;4993149;28;20193;-67
2021/05/14 06:23:46;;;;;;;0.20;0.20;;;12.00;80.00;;;;;;4993349;28;20056;-67
2021/05/14 06:26:15;;;;;;;0.20;0.20;;;12.00;79.80;;;;;;4992699;28;20418;-67
2021/05/14 06:28:41;;;;;;;0.10;0.10;;;12.10;79.90;;;;;;4993283;28;20180;-67
2021/05/14 06:31:08;;;;;;;0.30;0.30;;;12.00;80.00;;;;;;4993001;28;20054;-67
2021/05/14 06:33:34;;;;;;;0.20;0.20;;;12.00;80.10;;;;;;4993089;28;20129;-67
2021/05/14 06:36:01;;;;;;;0.10;0.10;;;12.00;80.10;;;;;;4993176;28;20129;-67
2021/05/14 06:38:28;;;;;;;0.30;0.10;;;12.00;80.20;;;;;;4992939;28;20049;-67
2021/05/14 06:40:55;;;;;;;0.20;0.20;;;12.00;80.50;;;;;;4992881;28;20073;-67
2021/05/14 06:43:22;;;;;;;0.28;0.28;;;12.00;80.50;;;;;;4992792;28;20129;-67
2021/05/14 06:45:48;;;;;;;0.30;0.30;;;12.00;81.60;;;;;;4992437;28;20129;-67
2021/05/14 06:48:15;;;;;;;0.20;0.20;;;12.00;80.80;;;;;;4992566;28;20046;-67
2021/05/14 06:50:42;;;;;;;0.30;0.30;;;12.00;81.00;;;;;;4992702;28;20191;-67
2021/05/14 06:53:09;;;;;;;0.20;0.20;;;12.10;81.00;;;;;;4992431;28;20459;-67
2021/05/14 06:55:37;;;;;;;0.20;0.20;;;12.10;82.00;;;;;;4991927;28;20054;-67
2021/05/14 06:58:04;;;;;;;0.20;0.20;;;12.20;81.10;;;;;;4992526;28;20050;-67
2021/05/14 07:00:34;;;;;;;0.20;0.15;;;12.20;80.80;;;;;;4992705;28;20050;-67
2021/05/14 07:03:00;;;;;;;0.20;0.20;;;12.20;80.80;;;;;;4992409;28;20510;-68
2021/05/14 07:05:26;;;;;;;0.13;0.13;;;12.30;81.00;;;;;;4992334;28;20054;-67
2021/05/14 07:07:53;;;;;;;0.30;0.30;;;12.30;81.10;;;;;;4991897;28;20054;-67
2021/05/14 07:10:20;;;;;;;0.20;0.20;;;12.40;80.90;;;;;;4992311;28;20050;-67
2021/05/14 07:12:46;;;;;;;0.20;0.20;;;12.50;80.70;;;;;;4992225;28;20054;-68
2021/05/14 07:15:13;;;;;;;0.20;0.20;;;12.40;80.40;;;;;;4992308;28;20078;-68
2021/05/14 07:17:39;;;;;;;0.25;0.25;;;12.50;80.40;;;;;;4991393;28;20485;-68
2021/05/14 07:20:07;;;;;;;0.28;0.28;;;12.40;80.20;;;;;;4992217;28;20125;-67
2021/05/14 07:22:35;;;;;;;0.30;0.30;;;12.40;80.10;;;;;;4990282;28;20125;-66
2021/05/14 07:25:04;;;;;;;0.20;0.20;;;12.40;80.20;;;;;;4989832;28;20180;-67
2021/05/14 07:27:31;;;;;;;0.43;0.30;;;12.30;80.30;;;;;;4990056;28;20157;-67
2021/05/14 07:29:57;;;;;;;0.25;0.25;;;12.30;80.60;;;;;;4990133;28;20398;-68
2021/05/14 07:32:24;;;;;;;0.20;0.20;;;12.30;80.70;;;;;;4989742;28;20046;-67
2021/05/14 07:34:52;;;;;;;0.30;0.30;;;12.30;80.70;;;;;;4987348;28;20149;-67
2021/05/14 07:37:19;;;;;;;0.30;0.30;;;12.20;80.80;;;;;;4982715;28;20058;-67
2021/05/14 07:39:46;;;;;;;0.20;0.20;;;12.20;81.00;;;;;;4979807;28;20050;-67
2021/05/14 07:42:12;;;;;;;0.30;0.30;;;12.20;81.10;;;;;;4987044;28;20042;-67
2021/05/14 07:44:39;;;;;;;0.20;0.20;;;12.20;81.30;;;;;;4987563;28;20055;-67
2021/05/14 07:47:05;;;;;;;0.50;0.30;;;12.10;81.40;;;;;;4987914;28;20415;-67
2021/05/14 07:49:32;;;;;;;0.20;0.20;;;12.20;81.40;;;;;;4989193;28;20046;-67
2021/05/14 07:51:59;;;;;;;0.20;0.20;;;12.20;81.80;;;;;;4988880;28;20054;-67
2021/05/14 07:54:25;;;;;;;0.20;0.20;;;12.20;81.80;;;;;;4989374;28;20050;-67
2021/05/14 07:56:51;;;;;;;0.10;0.10;;;12.20;81.70;;;;;;4989962;28;20136;-67
2021/05/14 07:59:18;;;;;;;0.20;0.20;;;12.30;81.70;;;;;;4989569;28;20521;-67
2021/05/14 08:01:44;;;;;;;0.20;0.20;;;12.40;81.80;;;;;;4989737;28;20113;-68
2021/05/14 08:04:10;;;;;;;0.20;0.20;;;12.40;81.70;;;;;;4989844;28;20061;-68
2021/05/14 08:06:36;;;;;;;0.20;0.20;;;12.50;81.40;;;;;;4989337;28;20140;-67
2021/05/14 08:09:07;;;;;;;0.20;0.20;;;12.60;81.60;;;;;;4989036;28;20133;-67
2021/05/14 08:11:33;;;;;;;0.35;0.35;;;12.50;81.50;;;;;;4987536;28;20517;-67
2021/05/14 08:14:00;;;;;;;0.32;0.32;;;12.50;81.70;;;;;;4988889;28;20129;-67
2021/05/14 08:16:26;;;;;;;0.20;0.20;;;12.50;81.90;;;;;;4985049;28;20503;-68
2021/05/14 08:18:52;;;;;;;0.30;0.30;;;12.50;82.00;;;;;;4982999;28;20057;-69
2021/05/14 08:21:20;;;;;;;0.20;0.20;;;12.60;82.00;;;;;;4985311;28;20042;-68
2021/05/14 08:23:46;;;;;;;0.30;0.30;;;12.60;81.60;;;;;;4981359;28;20177;-66
2021/05/14 08:26:13;;;;;;;0.20;0.20;;;12.70;81.50;;;;;;4984138;28;20042;-68
2021/05/14 08:28:41;;;;;;;0.22;0.22;;;12.80;81.30;;;;;;4990951;28;20461;-68
2021/05/14 08:31:07;;;;;;;0.52;0.25;;;12.70;81.20;;;;;;4994275;28;20861;-66
2021/05/14 08:33:33;;;;;;;0.10;0.10;;;12.80;81.00;;;;;;4994435;28;20050;-67
2021/05/14 08:36:00;;;;;;;0.20;0.20;;;12.90;81.30;;;;;;4994702;28;20054;-69
2021/05/14 08:38:27;;;;;;;0.17;0.17;;;13.10;81.00;;;;;;5008697;28;20046;-69
2021/05/14 08:40:53;;;;;;;0.20;0.20;;;13.20;80.50;;;;;;4994160;28;20121;-69
2021/05/14 08:43:20;;;;;;;0.30;0.30;;;13.10;79.90;;;;;;4981310;28;20050;-71
2021/05/14 08:45:48;;;;;;;0.10;0.10;;;13.30;80.30;;;;;;4982073;28;20055;-69
2021/05/14 08:48:16;;;;;;;0.30;0.20;;;13.60;80.30;;;;;;4987281;28;20133;-69
2021/05/14 08:50:43;;;;;;;0.20;0.20;;;13.70;78.10;;;;;;4982144;28;20050;-68
2021/05/14 08:53:09;;;;;;;0.10;0.10;;;14.00;78.10;;;;;;4977078;28;20046;-68
2021/05/14 08:55:37;;;;;;;0.20;0.20;;;14.20;77.20;;;;;;4981969;28;20089;-70
2021/05/14 08:58:03;;;;;;;0.20;0.20;;;14.60;76.70;;;;;;4987093;28;20133;-75
2021/05/14 09:00:30;;;;;;;0.22;0.20;;;14.90;74.50;;;;;;4982700;28;20181;-69
2021/05/14 09:02:56;;;;;;;0.20;0.20;;;15.00;73.60;;;;;;4974760;28;20477;-69
2021/05/14 09:05:25;;;;;;;0.20;0.20;;;15.40;74.10;;;;;;4975586;28;20059;-69
2021/05/14 09:07:53;;;;;;;0.20;0.20;;;15.70;72.90;;;;;;4973296;28;20051;-69
2021/05/14 09:10:19;;;;;;;0.10;0.10;;;15.70;70.30;;;;;;4972042;28;20631;-69
2021/05/14 09:12:46;;;;;;;0.10;0.10;;;15.60;69.70;;;;;;4980553;28;20050;-69
2021/05/14 09:15:34;;;;;;;0.10;0.10;;;15.50;70.30;;;;;;4977345;28;20055;-69
2021/05/14 09:18:04;;;;;;;0.10;0.10;;;15.80;71.70;;;;;;4977935;28;20416;-68
2021/05/14 09:20:39;;;;;;;0.10;0.10;;;16.80;71.70;;;;;;4983629;28;20050;-69
2021/05/14 09:23:21;;;;;;;0.20;0.20;;;17.70;66.20;;;;;;4985692;28;20561;-68
2021/05/14 09:25:55;;;;;;;0.20;0.20;;;18.10;64.10;;;;;;4985073;28;20107;-69
2021/05/14 09:28:25;;;;;;;0.10;0.10;;;18.60;61.90;;;;;;4977626;28;20129;-69
2021/05/14 09:31:17;;;;;;;0.20;0.20;;;19.10;60.80;;;;;;4972799;28;20062;-69
2021/05/14 09:33:45;;;;;;;0.25;0.20;;;19.10;58.30;;;;;;4976034;28;20054;-69
2021/05/14 09:36:21;;;;;;;0.20;0.20;;;18.90;57.80;;;;;;4989173;28;20104;-71
2021/05/14 09:38:53;;;;;;;0.13;0.13;;;18.60;58.70;;;;;;4987077;28;20136;-68
2021/05/14 09:41:34;;;;;;;0.30;0.30;;;18.20;59.20;;;;;;4986909;28;20812;-69
2021/05/14 09:44:02;;;;;;;0.20;0.15;;;17.70;60.10;;;;;;4985842;28;20447;-68
2021/05/14 09:46:58;;;;;;;0.30;0.30;;;17.30;60.70;;;;;;4987091;28;20505;-69
2021/05/14 09:49:27;;;;;;;0.30;0.30;;;16.90;61.90;;;;;;4968993;28;20055;-68
2021/05/14 09:52:13;;;;;;;0.25;0.25;;;16.50;63.10;;;;;;4976977;28;20057;-68
2021/05/14 09:54:40;;;;;;;0.20;0.20;;;16.20;63.50;;;;;;4978538;28;20578;-67
2021/05/14 09:59:50;;;;;;;0.35;0.20;;;15.70;64.40;;;;;;4986711;28;20440;-69
2021/05/14 10:02:21;;;;;;;0.30;0.30;;;15.50;65.10;;;;;;4983825;28;20050;-69
2021/05/14 10:04:49;;;;;;;0.35;0.35;;;15.30;65.80;;;;;;4972497;28;20055;-67
2021/05/14 10:07:17;;;;;;;0.20;0.20;;;15.10;66.50;;;;;;4976874;28;20449;-68
2021/05/14 10:09:46;;;;;;;0.28;0.28;;;15.00;67.30;;;;;;4970924;28;20054;-68
2021/05/14 10:12:15;;;;;;;0.30;0.30;;;15.00;67.70;;;;;;4970291;28;20088;-68
2021/05/14 10:14:44;;;;;;;0.20;0.20;;;15.00;67.70;;;;;;4969609;28;20481;-69
2021/05/14 10:17:11;;;;;;;0.20;0.20;;;15.00;67.40;;;;;;4971725;28;20067;-69
2021/05/14 10:19:40;;;;;;;0.20;0.20;;;15.00;67.60;;;;;;4975796;28;20108;-67
2021/05/14 10:22:07;;;;;;;0.30;0.30;;;15.00;67.70;;;;;;4981019;28;20166;-67
2021/05/14 10:24:37;;;;;;;0.40;0.22;;;15.00;68.00;;;;;;4984889;28;20829;-69
2021/05/14 10:27:13;;;;;;;0.35;0.35;;;14.90;68.00;;;;;;4979362;28;20554;-69
2021/05/14 10:29:46;;;;;;;0.28;0.28;;;14.90;68.00;;;;;;4976972;28;20454;-69
2021/05/14 10:32:13;;;;;;;0.22;0.22;;;14.90;68.10;;;;;;4975518;28;20050;-68
2021/05/14 10:34:40;;;;;;;0.25;0.25;;;15.00;68.60;;;;;;4984272;28;20564;-68
2021/05/14 10:37:06;;;;;;;0.10;0.10;;;15.10;68.10;;;;;;4974618;28;20074;-68
2021/05/14 10:39:39;;;;;;;0.32;0.32;;;15.10;67.80;;;;;;4988799;28;20054;-68
2021/05/14 10:42:12;;;;;;;0.30;0.30;;;15.10;67.20;;;;;;4982851;28;20046;-68
2021/05/14 10:44:53;;;;;;;0.40;0.40;;;15.00;67.30;;;;;;4969383;28;20141;-68
2021/05/14 10:47:25;;;;;;;0.20;0.20;;;14.80;68.10;;;;;;4981319;28;20046;-68
2021/05/14 10:49:59;;;;;;;0.30;0.30;;;14.70;67.40;;;;;;4981740;28;20047;-68
2021/05/14 10:52:27;;;;;;;0.30;0.30;;;14.60;67.70;;;;;;4985944;28;20622;-68
2021/05/14 10:54:54;;;;;;;0.30;0.30;;;14.50;67.70;;;;;;4978960;28;20046;-72
2021/05/14 10:57:38;;;;;;;0.30;0.30;;;14.50;67.90;;;;;;4978951;28;20129;-68
2021/05/14 11:00:23;;;;;;;0.22;0.22;;;14.50;68.40;;;;;;4991376;28;20129;-68
2021/05/14 11:03:11;;;;;;;0.20;0.20;;;14.50;68.30;;;;;;4987868;28;20105;-67
2021/05/14 11:05:40;;;;;;;0.30;0.30;;;14.50;67.90;;;;;;4991406;28;20058;-68
2021/05/14 11:08:33;;;;;;;0.45;0.40;;;14.50;67.80;;;;;;4990405;28;20112;-68
2021/05/14 11:11:01;;;;;;;0.20;0.20;;;14.50;67.80;;;;;;4986108;28;20470;-67
2021/05/14 11:13:55;;;;;;;0.30;0.30;;;14.50;67.70;;;;;;4983379;28;20144;-67
2021/05/14 11:16:34;;;;;;;0.30;0.30;;;14.50;67.60;;;;;;4988675;28;20054;-67
2021/05/14 11:19:19;;;;;;;0.28;0.28;;;14.50;67.70;;;;;;4990984;28;20054;-67
2021/05/14 11:22:04;;;;;;;0.17;0.17;;;14.60;67.90;;;;;;4990311;28;20129;-67
2021/05/14 11:24:33;;;;;;;0.40;0.40;;;14.70;67.40;;;;;;4991217;28;20168;-67
2021/05/14 11:27:14;;;;;;;0.28;0.20;;;14.80;66.50;;;;;;4991014;28;20169;-67
2021/05/14 11:29:50;;;;;;;0.20;0.20;;;14.80;65.60;;;;;;4990244;28;20168;-67
2021/05/14 11:32:34;;;;;;;0.20;0.20;;;15.00;65.70;;;;;;4979172;28;20129;-67
2021/05/14 11:35:23;;;;;;;0.20;0.20;;;15.10;65.80;;;;;;4990001;28;20050;-67
2021/05/14 11:37:57;;;;;;;0.20;0.20;;;15.30;65.50;;;;;;4991964;28;20089;-67
2021/05/14 11:40:29;;;;;;;0.20;0.20;;;15.40;65.00;;;;;;4992457;28;20502;-67
2021/05/14 11:43:05;;;;;;;0.20;0.20;;;15.50;64.60;;;;;;4991533;28;20047;-67
2021/05/14 11:45:37;;;;;;;0.15;0.15;;;15.50;64.20;;;;;;4991595;28;20050;-67
2021/05/14 11:48:23;;;;;;;0.35;0.20;;;15.50;63.70;;;;;;4992024;28;20047;-67
2021/05/14 11:50:53;;;;;;;0.20;0.20;;;15.50;63.80;;;;;;4991441;28;20125;-66
2021/05/14 11:53:21;;;;;;;0.10;0.10;;;15.40;63.80;;;;;;4992004;28;20047;-67
2021/05/14 11:55:49;;;;;;;0.10;0.10;;;15.30;64.20;;;;;;4991561;28;20054;-67
2021/05/14 11:58:15;;;;;;;0.28;0.28;;;15.30;64.70;;;;;;4991750;28;20383;-67
2021/05/14 12:00:52;;;;;;;0.30;0.30;;;15.40;64.90;;;;;;4991623;28;20139;-67
2021/05/14 12:03:20;;;;;;;0.28;0.28;;;15.40;64.30;;;;;;4991924;28;20128;-67
2021/05/14 12:05:47;;;;;;;0.30;0.30;;;15.40;64.40;;;;;;4991531;28;20177;-67
2021/05/14 12:08:19;;;;;;;0.10;0.10;;;15.50;64.20;;;;;;4991390;28;20556;-67
2021/05/14 12:10:56;;;;;;;0.20;0.20;;;15.50;63.30;;;;;;4991703;28;20181;-67
2021/05/14 12:13:34;;;;;;;0.20;0.20;;;15.50;63.30;;;;;;4991415;28;20085;-67
2021/05/14 12:16:06;;;;;;;0.20;0.20;;;15.40;63.10;;;;;;4991484;28;20133;-68
2021/05/14 12:18:38;;;;;;;0.30;0.30;;;15.40;62.60;;;;;;4991523;28;20054;-67
2021/05/14 12:21:11;;;;;;;0.30;0.30;;;15.30;62.80;;;;;;4991209;28;20103;-67
2021/05/14 12:23:37;;;;;;;0.30;0.30;;;15.30;62.70;;;;;;4991281;28;20125;-67
2021/05/14 12:26:06;;;;;;;0.20;0.20;;;15.30;62.60;;;;;;4991225;28;20057;-67
2021/05/14 12:28:41;;;;;;;0.22;0.22;;;15.30;62.50;;;;;;4991033;28;20498;-68
2021/05/14 12:31:08;;;;;;;0.30;0.20;;;15.30;62.50;;;;;;4991454;28;20097;-66
2021/05/14 12:33:54;;;;;;;0.28;0.28;;;15.20;62.50;;;;;;4991073;28;20096;-67
2021/05/14 12:36:35;;;;;;;0.20;0.20;;;15.30;62.50;;;;;;4991358;28;20046;-66
2021/05/14 12:39:15;;;;;;;0.35;0.35;;;15.30;62.80;;;;;;4979547;28;20126;-67
2021/05/14 12:41:43;;;;;;;0.20;0.20;;;15.30;62.80;;;;;;4983528;28;20092;-64
